Hauptseite
METAR-TAF:

METAR-TAF

Flughäfen :

Dalcahue, Chile

Breite: 42-20-25S, Länge: 073-42-56W, Höhe: 161 m

Beobachtung

Neuester Wetterbericht von vor 1 Stunde und 9 Minuten, um 12:00 UTC
Wind 5 kt aus Süd
Temperatur 11°C
Luftfeuchtigkeit 76%
Luftdruck 1020 hPa
Sichtweite 10 km oder mehr
keine Wolken unter 1500 m und keine Kumulonimbus oder Gewitterwolken

METAR: SCPQ 241200Z 19005KT CAVOK 11/07 Q1020

Zeit: 10:09 (13:09 UTC)


TAF: fehlend

Wetterbeobachtungen und Prognosen von mehr als 4000 Flughäfen (METAR und TAF Bericht).

Die verfügbaren Stationen werden durch gelbe und rote Markierungen auf der Karte dargestellt.

Führen Sie die Maus auf sie, um den Namen der Station zu sehen.

Darauf klicken, um die Beobachtung von Wetterbeobachtungen und Prognosen zu sehen.

Um die Karte zu ändern : klicken Sie auf den grünen Tasten mit einem schwarzen Kreuz Zum Vergrößern, auf den grünen Button mit einem Gedankenstrich zu verkleinern, oder auf die grünen Pfeile für benachbarte Karten.


METAR-TAF: